Time;durP1;ratioP1;P1;durP2;ratioP2;P2;SDS_P1;SDS_P2;PMS_P1;PMS_P2;Temp;Humidity;BMP_temperature;BMP_pressure;BME280_temperature;BME280_humidity;BME280_pressure;Samples;Min_cycle;Max_cycle;Signal;HPM_P1;HPM_P2
2023/01/30 05:31:11;;;;;;;17.23;7.43;;;7.60;82.70;;;;;;5619484;23;20036;-77
2023/01/30 05:33:38;;;;;;;13.97;7.10;;;7.60;82.80;;;;;;4882500;29;20025;-83
2023/01/30 05:36:05;;;;;;;10.95;5.05;;;7.60;82.90;;;;;;4901925;29;20347;-78
2023/01/30 05:38:30;;;;;;;13.02;6.60;;;7.70;82.90;;;;;;4900523;29;20036;-74
2023/01/30 05:41:04;;;;;;;13.85;7.30;;;7.70;83.00;;;;;;4883987;29;20823;-77
2023/01/30 05:43:30;;;;;;;13.18;7.35;;;7.70;83.00;;;;;;4883906;29;20409;-80
2023/01/30 05:45:57;;;;;;;11.88;6.18;;;7.70;82.70;;;;;;4883573;29;20061;-79
2023/01/30 05:48:24;;;;;;;13.43;6.47;;;7.80;82.60;;;;;;4883635;29;20511;-79
2023/01/30 05:50:50;;;;;;;13.40;7.22;;;7.80;82.50;;;;;;4883804;29;20906;-78
2023/01/30 05:53:20;;;;;;;13.23;6.85;;;7.80;82.30;;;;;;4883794;29;20104;-78
2023/01/30 05:55:46;;;;;;;11.10;6.27;;;7.80;82.50;;;;;;4895225;29;20124;-76
2023/01/30 05:58:21;;;;;;;14.77;7.80;;;7.80;82.50;;;;;;4902330;29;20381;-78
2023/01/30 06:00:46;;;;;;;14.15;7.10;;;7.90;82.50;;;;;;4882320;29;20039;-82
2023/01/30 06:03:12;;;;;;;14.30;7.10;;;7.80;82.40;;;;;;4905026;29;20032;-79
2023/01/30 06:05:37;;;;;;;11.60;6.45;;;7.90;82.40;;;;;;4913103;29;20031;-79
2023/01/30 06:08:03;;;;;;;12.27;7.22;;;7.90;82.30;;;;;;4886066;29;20043;-79
2023/01/30 06:10:29;;;;;;;12.95;6.70;;;7.90;82.20;;;;;;4885965;29;20068;-80
2023/01/30 06:12:55;;;;;;;14.07;6.75;;;7.90;82.20;;;;;;4898660;29;20408;-82
2023/01/30 06:15:23;;;;;;;13.77;6.18;;;7.90;82.30;;;;;;4896252;29;20045;-80
2023/01/30 06:17:48;;;;;;;10.88;6.38;;;7.90;82.30;;;;;;4883366;29;20029;-79
2023/01/30 06:20:14;;;;;;;13.20;7.20;;;7.90;82.20;;;;;;4904594;29;20043;-82
2023/01/30 06:23:26;;;;;;;12.90;6.10;;;7.90;82.20;;;;;;4899888;29;20028;-88
2023/01/30 06:26:03;;;;;;;;;;;;;;;;;;;;;
2023/01/30 06:43:58;;;;;;;13.50;6.50;;;8.00;82.20;;;;;;4732495;30;20128;-87
2023/01/30 06:46:57;;;;;;;;;;;;;;;;;;;;;
2023/01/30 06:49:23;;;;;;;10.25;5.57;;;8.00;82.30;;;;;;4755099;30;20050;-84
2023/01/30 06:51:49;;;;;;;10.20;6.18;;;8.00;82.30;;;;;;4798069;29;20074;-83
2023/01/30 06:54:17;;;;;;;10.45;6.13;;;7.90;82.40;;;;;;4869650;29;20104;-84
2023/01/30 06:56:43;;;;;;;10.98;5.90;;;7.90;82.60;;;;;;4865354;29;20058;-87
2023/01/30 06:59:08;;;;;;;12.57;6.55;;;7.90;82.60;;;;;;4866910;29;20067;-87
2023/01/30 07:01:34;;;;;;;16.67;7.88;;;7.90;82.70;;;;;;4869698;29;20497;-90
2023/01/30 07:04:00;;;;;;;12.82;7.30;;;7.90;82.70;;;;;;4877306;29;20060;-87
2023/01/30 07:06:31;;;;;;;14.55;7.57;;;7.90;82.70;;;;;;4868611;29;20029;-88
2023/01/30 07:08:57;;;;;;;12.98;7.47;;;7.90;82.70;;;;;;4861620;29;20044;-90
2023/01/30 07:11:26;;;;;;;17.55;7.78;;;7.90;82.70;;;;;;4855146;29;20460;-89
2023/01/30 07:13:52;;;;;;;16.20;7.93;;;7.90;82.60;;;;;;4857427;29;20038;-88
2023/01/30 07:16:17;;;;;;;15.15;8.07;;;8.00;82.60;;;;;;4864906;29;20026;-89
2023/01/30 07:18:43;;;;;;;14.25;7.95;;;7.90;82.70;;;;;;4851048;29;20059;-87
2023/01/30 07:21:09;;;;;;;15.68;8.63;;;8.00;82.50;;;;;;4847898;29;20029;-87
2023/01/30 07:23:37;;;;;;;14.23;7.50;;;8.00;82.40;;;;;;4849640;29;20025;-88
2023/01/30 07:26:05;;;;;;;12.82;7.22;;;8.00;82.50;;;;;;4865829;29;20029;-88
2023/01/30 07:28:30;;;;;;;13.57;6.95;;;8.00;82.40;;;;;;4895383;29;20070;-90
2023/01/30 07:31:00;;;;;;;15.80;8.38;;;8.10;82.40;;;;;;4866768;29;20572;-89
2023/01/30 07:33:25;;;;;;;12.82;7.28;;;8.10;82.30;;;;;;4847889;29;20069;-88
2023/01/30 07:35:52;;;;;;;17.15;8.07;;;8.10;82.30;;;;;;4867074;29;20025;-89
2023/01/30 07:38:17;;;;;;;16.70;8.80;;;8.10;82.30;;;;;;4857535;29;20104;-87
2023/01/30 07:40:43;;;;;;;13.38;7.00;;;8.10;82.30;;;;;;4883492;29;20029;-85
2023/01/30 07:43:12;;;;;;;15.02;7.80;;;8.10;82.40;;;;;;4878099;29;20063;-87
2023/01/30 07:45:47;;;;;;;14.95;7.88;;;8.00;82.50;;;;;;4884697;29;20115;-88
2023/01/30 07:48:15;;;;;;;19.15;8.93;;;8.10;82.40;;;;;;4903471;29;20029;-87
2023/01/30 07:50:42;;;;;;;14.43;7.20;;;8.10;82.50;;;;;;4865639;29;20548;-89
2023/01/30 07:53:11;;;;;;;21.40;9.32;;;8.10;82.40;;;;;;4869209;29;20029;-87
2023/01/30 07:55:37;;;;;;;17.45;8.30;;;8.10;82.30;;;;;;4893187;29;20028;-88
2023/01/30 07:58:03;;;;;;;13.77;7.68;;;8.10;82.70;;;;;;4880864;29;20070;-87
2023/01/30 08:00:30;;;;;;;16.77;8.45;;;8.10;82.60;;;;;;4882550;29;20032;-88
2023/01/30 08:02:55;;;;;;;15.77;7.88;;;8.20;82.60;;;;;;4869788;29;20032;-87
2023/01/30 08:05:21;;;;;;;17.77;8.32;;;8.10;82.60;;;;;;4900886;29;20025;-86
2023/01/30 08:07:47;;;;;;;14.85;8.23;;;8.20;82.60;;;;;;4882153;29;20032;-87
2023/01/30 08:10:13;;;;;;;18.25;7.95;;;8.20;82.60;;;;;;4882131;29;20037;-88
2023/01/30 08:12:41;;;;;;;19.17;9.80;;;8.20;82.40;;;;;;4886313;29;20164;-87
2023/01/30 08:15:08;;;;;;;18.80;8.80;;;8.30;82.40;;;;;;4865664;29;20403;-88
2023/01/30 08:17:34;;;;;;;22.25;10.13;;;8.30;82.20;;;;;;4882144;29;20419;-89
2023/01/30 08:20:00;;;;;;;16.05;9.48;;;8.30;82.10;;;;;;4865417;29;20127;-87
2023/01/30 08:22:26;;;;;;;16.08;7.93;;;8.30;82.30;;;;;;4873048;29;20035;-87
2023/01/30 08:24:52;;;;;;;23.52;9.93;;;8.20;82.30;;;;;;4882025;29;20017;-88
2023/01/30 08:27:18;;;;;;;17.20;9.07;;;8.30;82.40;;;;;;4865673;29;20052;-87
2023/01/30 08:29:44;;;;;;;17.35;8.38;;;8.30;82.60;;;;;;4865292;29;20025;-89
2023/01/30 08:32:09;;;;;;;13.10;7.35;;;8.30;82.60;;;;;;4865555;29;20033;-89
2023/01/30 08:34:35;;;;;;;17.05;8.95;;;8.40;82.40;;;;;;4882350;29;20032;-89
2023/01/30 08:37:01;;;;;;;23.02;8.85;;;8.40;82.50;;;;;;4897065;29;20033;-87
2023/01/30 08:39:27;;;;;;;14.75;6.97;;;8.40;82.30;;;;;;4881208;29;20076;-88
2023/01/30 08:41:53;;;;;;;19.50;8.10;;;8.50;82.40;;;;;;4919646;29;20032;-87
2023/01/30 08:44:18;;;;;;;17.05;8.50;;;8.50;82.40;;;;;;4919422;29;20024;-87
2023/01/30 08:46:44;;;;;;;16.98;7.70;;;8.50;82.50;;;;;;4884651;29;20041;-87
2023/01/30 08:49:10;;;;;;;16.13;8.57;;;8.50;82.50;;;;;;4879563;29;20377;-86
2023/01/30 08:51:36;;;;;;;14.93;7.53;;;8.50;82.50;;;;;;4864988;29;20036;-89
2023/01/30 08:54:01;;;;;;;16.40;9.38;;;8.50;82.50;;;;;;4865142;29;20029;-88
2023/01/30 08:56:27;;;;;;;17.33;8.82;;;8.60;82.50;;;;;;4898947;29;20624;-88
2023/01/30 08:58:52;;;;;;;17.95;8.70;;;8.60;82.50;;;;;;4883886;29;20532;-89
2023/01/30 09:01:18;;;;;;;12.90;6.68;;;8.60;82.60;;;;;;4880527;29;20396;-87
2023/01/30 09:03:44;;;;;;;15.80;8.30;;;8.60;82.80;;;;;;4879203;29;20519;-86
2023/01/30 09:06:10;;;;;;;17.42;7.82;;;8.70;82.60;;;;;;4887216;29;20029;-87
2023/01/30 09:08:35;;;;;;;17.05;8.40;;;8.80;82.60;;;;;;4883714;29;20063;-87
2023/01/30 09:11:03;;;;;;;14.75;8.65;;;8.80;82.60;;;;;;4892139;29;20033;-86
2023/01/30 09:13:30;;;;;;;12.90;7.05;;;8.80;82.50;;;;;;4886929;29;20039;-87
2023/01/30 09:15:56;;;;;;;17.17;7.22;;;8.90;82.30;;;;;;4901479;29;20036;-87
2023/01/30 09:18:22;;;;;;;11.13;6.28;;;8.90;82.20;;;;;;4884664;29;20025;-85
2023/01/30 09:20:48;;;;;;;14.93;7.05;;;9.00;82.30;;;;;;4884929;29;20025;-88
2023/01/30 09:23:13;;;;;;;15.70;7.93;;;9.00;82.30;;;;;;4884595;29;20036;-89
2023/01/30 09:25:40;;;;;;;11.23;6.20;;;9.10;82.40;;;;;;4884724;29;20400;-88
2023/01/30 09:28:06;;;;;;;13.35;6.88;;;9.20;82.30;;;;;;4879570;29;20040;-89
2023/01/30 09:30:33;;;;;;;16.52;7.47;;;9.20;82.30;;;;;;4884632;29;20032;-90
2023/01/30 09:32:58;;;;;;;12.15;6.57;;;9.20;82.20;;;;;;4883859;29;20100;-89
2023/01/30 09:35:24;;;;;;;15.93;7.80;;;9.20;82.20;;;;;;4886539;29;20565;-89
2023/01/30 09:37:52;;;;;;;17.85;8.00;;;9.30;82.20;;;;;;4886622;29;20053;-88
2023/01/30 09:40:23;;;;;;;17.75;8.32;;;9.30;82.30;;;;;;4869914;29;20045;-87
2023/01/30 09:43:13;;;;;;;13.98;7.78;;;9.50;82.00;;;;;;4867987;29;20025;-89
2023/01/30 09:45:57;;;;;;;16.63;7.80;;;9.70;81.80;;;;;;4875792;29;20119;-89
2023/01/30 09:49:01;;;;;;;13.75;7.05;;;9.80;81.60;;;;;;4896212;29;20037;-88
2023/01/30 09:51:50;;;;;;;14.63;6.85;;;9.80;81.40;;;;;;4866454;29;20045;-86
2023/01/30 09:54:28;;;;;;;14.70;6.75;;;10.10;81.10;;;;;;4867656;29;20033;-88
2023/01/30 09:57:18;;;;;;;11.82;6.72;;;10.10;81.00;;;;;;4867461;29;20037;-88
2023/01/30 10:00:04;;;;;;;11.43;6.95;;;10.00;81.00;;;;;;4882203;29;20041;-88
2023/01/30 10:03:04;;;;;;;15.32;6.18;;;9.90;81.20;;;;;;4902927;29;20559;-87
2023/01/30 10:05:52;;;;;;;11.07;6.07;;;9.80;81.30;;;;;;4902733;29;20035;-88
2023/01/30 10:08:30;;;;;;;9.45;5.70;;;9.70;81.70;;;;;;4884115;29;20029;-88
2023/01/30 10:11:38;;;;;;;14.05;6.43;;;9.70;81.90;;;;;;4874147;29;20081;-88
2023/01/30 10:14:21;;;;;;;11.68;5.75;;;9.70;82.10;;;;;;4812315;29;20039;-88
2023/01/30 10:17:12;;;;;;;11.13;5.47;;;9.70;82.30;;;;;;4885818;29;20032;-88
2023/01/30 10:19:44;;;;;;;9.30;5.82;;;9.70;82.40;;;;;;4898124;29;20105;-88
2023/01/30 10:22:47;;;;;;;14.60;6.88;;;9.70;82.40;;;;;;4867089;29;20040;-88
2023/01/30 10:25:16;;;;;;;10.52;5.68;;;9.70;82.60;;;;;;4883817;29;20071;-89
2023/01/30 10:27:54;;;;;;;11.00;5.95;;;9.70;82.50;;;;;;4866780;29;20071;-88
2023/01/30 10:30:20;;;;;;;10.68;5.85;;;9.70;82.60;;;;;;4883480;29;20480;-86
2023/01/30 10:33:17;;;;;;;11.90;5.60;;;9.70;82.70;;;;;;4881358;29;20055;-88
2023/01/30 10:35:43;;;;;;;10.98;5.70;;;9.80;83.00;;;;;;4853720;29;20056;-88
2023/01/30 10:38:23;;;;;;;13.45;5.53;;;9.80;82.80;;;;;;4883262;29;20088;-89
2023/01/30 10:41:00;;;;;;;8.87;5.23;;;9.90;82.80;;;;;;4866657;29;20449;-88
2023/01/30 10:43:34;;;;;;;10.63;5.70;;;10.00;82.80;;;;;;4883777;29;20029;-89
2023/01/30 10:46:09;;;;;;;9.57;5.45;;;9.90;83.00;;;;;;4866704;29;20523;-88
2023/01/30 10:48:48;;;;;;;11.60;5.90;;;10.00;82.80;;;;;;4904019;29;20096;-89
2023/01/30 10:51:42;;;;;;;9.17;5.30;;;10.00;82.60;;;;;;4881226;29;20056;-89
2023/01/30 10:54:30;;;;;;;11.25;6.60;;;9.90;83.20;;;;;;4858310;29;20041;-89
2023/01/30 10:57:15;;;;;;;11.13;5.35;;;9.90;83.00;;;;;;4883216;29;20029;-88
2023/01/30 10:59:54;;;;;;;10.35;5.22;;;9.90;83.20;;;;;;4883241;29;20488;-89
2023/01/30 11:02:27;;;;;;;8.70;5.32;;;10.00;83.20;;;;;;4866253;29;20036;-88
2023/01/30 11:04:59;;;;;;;9.27;4.95;;;10.10;83.00;;;;;;4866266;29;20072;-86
2023/01/30 11:07:29;;;;;;;8.07;4.97;;;10.10;83.00;;;;;;4866511;29;20412;-88
2023/01/30 11:09:57;;;;;;;14.00;5.75;;;10.20;83.00;;;;;;4883080;29;20496;-88
2023/01/30 11:12:22;;;;;;;11.48;5.55;;;10.20;82.90;;;;;;4900470;29;20047;-87
2023/01/30 11:14:53;;;;;;;12.95;6.25;;;10.20;82.90;;;;;;4886537;29;20033;-87
2023/01/30 11:17:27;;;;;;;10.95;6.38;;;10.30;83.00;;;;;;4871094;29;20029;-88
2023/01/30 11:20:00;;;;;;;10.18;5.63;;;10.30;83.00;;;;;;4870476;29;20044;-88
2023/01/30 11:22:27;;;;;;;9.27;5.70;;;10.30;83.00;;;;;;4865963;29;20033;-88
2023/01/30 11:25:02;;;;;;;10.07;5.78;;;10.40;82.90;;;;;;4865187;29;20025;-88
2023/01/30 11:27:30;;;;;;;11.35;5.80;;;10.50;82.70;;;;;;4866054;29;20039;-88
2023/01/30 11:30:17;;;;;;;9.60;5.65;;;10.50;82.70;;;;;;4866119;29;20376;-88
2023/01/30 11:32:44;;;;;;;13.93;6.25;;;10.60;83.00;;;;;;4883295;29;20067;-88
2023/01/30 11:35:13;;;;;;;7.75;4.47;;;10.70;82.90;;;;;;4865829;29;20067;-88
2023/01/30 11:37:41;;;;;;;9.43;4.80;;;10.80;82.80;;;;;;4882166;29;20057;-88
2023/01/30 11:40:16;;;;;;;10.05;5.25;;;10.80;82.70;;;;;;4882487;29;20037;-88
2023/01/30 11:42:48;;;;;;;10.73;5.32;;;10.90;82.80;;;;;;4882524;29;20025;-88
2023/01/30 11:45:16;;;;;;;10.27;5.03;;;10.90;82.50;;;;;;4865834;29;20032;-88
2023/01/30 11:47:55;;;;;;;8.48;4.93;;;10.90;82.60;;;;;;4865605;29;20043;-88
2023/01/30 11:50:25;;;;;;;8.20;4.97;;;11.00;82.60;;;;;;4882575;29;20029;-88
2023/01/30 11:52:51;;;;;;;10.55;5.65;;;11.10;82.60;;;;;;4869719;29;20319;-88
2023/01/30 11:55:19;;;;;;;10.98;6.03;;;11.10;82.70;;;;;;4905585;29;20444;-87
2023/01/30 11:58:00;;;;;;;7.72;4.82;;;11.20;82.60;;;;;;4865316;29;20036;-88
2023/01/30 12:00:42;;;;;;;11.23;5.53;;;11.20;82.50;;;;;;4882142;29;20025;-87
2023/01/30 12:03:15;;;;;;;10.50;5.80;;;11.20;83.00;;;;;;4888209;29;20028;-87
2023/01/30 12:05:43;;;;;;;11.80;5.68;;;11.30;82.80;;;;;;4886050;29;20032;-82
2023/01/30 12:08:25;;;;;;;10.75;5.07;;;11.40;82.80;;;;;;4867175;29;20573;-86
2023/01/30 12:11:00;;;;;;;9.38;4.97;;;11.40;82.90;;;;;;4888236;29;20464;-89
2023/01/30 12:13:37;;;;;;;10.82;5.03;;;11.30;83.00;;;;;;4900647;29;20028;-85
2023/01/30 12:16:26;;;;;;;7.65;5.20;;;11.30;83.30;;;;;;4881887;29;20369;-84
2023/01/30 12:19:13;;;;;;;8.75;4.95;;;11.30;83.30;;;;;;4882827;29;20037;-93
2023/01/30 12:21:48;;;;;;;9.82;4.90;;;11.20;83.20;;;;;;4882359;29;20370;-86
2023/01/30 12:24:31;;;;;;;11.77;5.55;;;11.20;83.50;;;;;;4865858;29;20104;-91
2023/01/30 12:27:04;;;;;;;9.95;5.03;;;11.20;83.40;;;;;;4865647;29;20033;-86
2023/01/30 12:29:37;;;;;;;9.43;5.57;;;11.20;83.50;;;;;;4865979;29;20531;-84
2023/01/30 12:32:06;;;;;;;13.65;5.78;;;11.20;83.60;;;;;;4882041;29;20050;-86
2023/01/30 12:34:32;;;;;;;10.88;4.65;;;11.20;83.90;;;;;;4881503;29;20033;-78
2023/01/30 12:37:19;;;;;;;10.50;5.10;;;11.30;84.10;;;;;;4902515;29;20025;-80
2023/01/30 12:40:11;;;;;;;6.38;4.40;;;11.50;83.90;;;;;;4902414;29;20043;-77
2023/01/30 12:43:02;;;;;;;11.77;5.65;;;11.70;83.30;;;;;;4894413;29;20120;-77
2023/01/30 12:45:32;;;;;;;7.43;4.63;;;11.90;83.10;;;;;;4903637;29;20085;-78
2023/01/30 12:47:58;;;;;;;;;;;12.00;82.80;;;;;;4881411;29;20039;-77
2023/01/30 12:50:50;;;;;;;13.18;5.05;;;12.10;82.60;;;;;;4898368;29;19912;-77
2023/01/30 12:53:21;;;;;;;10.20;4.70;;;12.20;82.60;;;;;;4869241;29;20543;-77
2023/01/30 12:56:13;;;;;;;7.95;4.68;;;12.20;82.20;;;;;;4899712;29;20024;-77
2023/01/30 12:59:02;;;;;;;8.25;4.93;;;12.10;82.40;;;;;;4898023;29;20040;-77
2023/01/30 13:01:52;;;;;;;7.10;4.63;;;12.10;82.40;;;;;;4903661;29;20076;-77
2023/01/30 13:04:33;;;;;;;9.40;4.75;;;12.10;82.50;;;;;;4903499;29;20107;-77
2023/01/30 13:07:02;;;;;;;10.80;5.45;;;12.00;82.30;;;;;;4896841;29;20033;-77
2023/01/30 13:09:58;;;;;;;7.93;4.95;;;12.00;82.30;;;;;;4884540;29;20057;-77
2023/01/30 13:12:56;;;;;;;8.27;4.90;;;11.90;82.40;;;;;;4902441;29;20111;-77
2023/01/30 13:15:39;;;;;;;7.90;4.85;;;11.90;82.50;;;;;;4896207;29;20082;-77
2023/01/30 13:18:19;;;;;;;9.90;5.57;;;11.90;82.70;;;;;;4867580;29;20029;-77
2023/01/30 13:21:04;;;;;;;7.80;4.97;;;11.80;82.90;;;;;;4867744;29;20544;-77
2023/01/30 13:23:52;;;;;;;10.23;5.32;;;11.80;83.10;;;;;;4884449;29;20048;-77
2023/01/30 13:26:22;;;;;;;9.82;5.57;;;11.80;83.10;;;;;;4867957;29;20057;-77
2023/01/30 13:28:54;;;;;;;11.13;6.05;;;11.80;83.10;;;;;;4867065;29;20036;-77
2023/01/30 13:31:25;;;;;;;8.07;5.18;;;11.90;83.00;;;;;;4884340;29;20065;-77
2023/01/30 13:34:08;;;;;;;11.73;6.35;;;12.00;83.00;;;;;;4895686;29;20044;-77
2023/01/30 13:36:53;;;;;;;10.73;5.50;;;12.00;83.20;;;;;;4885796;29;20032;-77
2023/01/30 13:39:29;;;;;;;9.43;5.90;;;12.00;83.30;;;;;;4881584;29;20517;-77
2023/01/30 13:41:56;;;;;;;9.60;5.60;;;12.10;83.30;;;;;;4901501;29;20028;-77
2023/01/30 13:44:31;;;;;;;11.93;7.22;;;12.20;83.10;;;;;;4883999;29;20097;-77
2023/01/30 13:47:21;;;;;;;12.65;5.22;;;12.40;83.10;;;;;;4883915;29;20073;-77
2023/01/30 13:50:34;;;;;;;7.20;4.90;;;12.60;82.80;;;;;;4882651;29;20120;-77
2023/01/30 13:53:10;;;;;;;6.57;4.00;;;12.70;82.70;;;;;;4826511;29;20275;-77
2023/01/30 13:55:55;;;;;;;6.82;4.40;;;12.70;82.60;;;;;;4818257;29;20654;-77
2023/01/30 13:58:43;;;;;;;8.45;4.85;;;12.50;82.90;;;;;;4879458;29;20056;-77
2023/01/30 14:01:12;;;;;;;8.05;4.70;;;12.30;83.00;;;;;;4900051;29;20020;-77
2023/01/30 14:03:40;;;;;;;10.18;5.53;;;12.30;82.90;;;;;;4876700;29;20381;-77
2023/01/30 14:06:28;;;;;;;9.88;4.80;;;12.40;83.00;;;;;;4902149;29;20111;-77
2023/01/30 14:08:58;;;;;;;8.40;4.78;;;12.50;82.90;;;;;;4872730;29;20531;-77
2023/01/30 14:11:32;;;;;;;8.00;5.28;;;12.40;82.80;;;;;;4893842;29;20508;-77
2023/01/30 14:14:17;;;;;;;6.78;4.43;;;12.40;83.20;;;;;;4898537;29;20040;-77
2023/01/30 14:16:48;;;;;;;7.85;5.10;;;12.30;83.00;;;;;;4880661;29;20104;-77
2023/01/30 14:19:31;;;;;;;8.10;4.47;;;12.30;83.60;;;;;;4883100;29;20414;-77
2023/01/30 14:22:00;;;;;;;8.48;4.57;;;12.30;83.70;;;;;;4883424;29;20031;-77
2023/01/30 14:24:26;;;;;;;10.57;4.82;;;12.20;84.00;;;;;;4875213;29;20084;-77
2023/01/30 14:26:59;;;;;;;7.82;5.18;;;12.20;84.10;;;;;;4900065;29;20021;-77
2023/01/30 14:29:37;;;;;;;8.90;4.38;;;12.20;84.00;;;;;;4883125;29;20037;-77
2023/01/30 14:32:22;;;;;;;6.93;4.22;;;12.20;84.00;;;;;;4883221;29;20044;-77
2023/01/30 14:35:00;;;;;;;6.28;3.92;;;12.30;84.10;;;;;;4882341;29;20712;-76
2023/01/30 14:37:36;;;;;;;7.20;4.55;;;12.30;84.00;;;;;;4894652;29;20392;-77
2023/01/30 14:40:22;;;;;;;7.00;4.18;;;12.20;84.20;;;;;;4899790;29;20029;-77
2023/01/30 14:43:13;;;;;;;6.82;4.00;;;12.30;84.10;;;;;;4894554;29;20029;-77
2023/01/30 14:46:01;;;;;;;10.10;4.97;;;12.30;83.90;;;;;;4882773;29;20111;-77
2023/01/30 14:48:35;;;;;;;8.65;3.95;;;12.20;84.10;;;;;;4862833;29;20033;-77
2023/01/30 14:51:37;;;;;;;8.10;4.32;;;12.20;84.00;;;;;;4865730;29;20085;-76
2023/01/30 14:54:22;;;;;;;6.97;3.75;;;12.20;84.20;;;;;;4883113;29;20044;-77
2023/01/30 14:56:59;;;;;;;7.72;4.07;;;12.20;84.30;;;;;;4866069;29;20538;-77
2023/01/30 14:59:34;;;;;;;4.43;2.75;;;12.10;84.10;;;;;;4865402;29;20043;-77
2023/01/30 15:02:02;;;;;;;5.75;3.22;;;12.20;84.00;;;;;;4866058;29;20039;-76
2023/01/30 15:04:43;;;;;;;3.78;2.47;;;12.20;83.80;;;;;;4898656;29;20033;-76
2023/01/30 15:07:25;;;;;;;3.90;2.70;;;12.20;83.90;;;;;;4880477;29;20539;-77
2023/01/30 15:09:56;;;;;;;4.32;2.58;;;12.10;83.90;;;;;;4882431;29;20060;-77
2023/01/30 15:12:57;;;;;;;8.13;2.60;;;12.10;83.90;;;;;;4867079;29;20392;-77
2023/01/30 15:15:25;;;;;;;3.38;2.33;;;12.20;83.90;;;;;;4882585;29;20029;-76
2023/01/30 15:18:13;;;;;;;3.20;2.17;;;12.10;83.80;;;;;;4885685;29;20032;-77
2023/01/30 15:20:42;;;;;;;3.03;2.30;;;12.10;83.90;;;;;;4898249;29;20063;-76
2023/01/30 15:23:34;;;;;;;6.40;3.33;;;12.00;84.00;;;;;;4882440;29;20085;-77
2023/01/30 15:26:11;;;;;;;4.85;1.92;;;11.90;84.20;;;;;;4882499;29;20029;-76
2023/01/30 15:29:11;;;;;;;6.00;4.18;;;11.90;84.20;;;;;;4882143;29;20043;-77
2023/01/30 15:31:36;;;;;;;4.88;2.70;;;11.90;84.20;;;;;;4881903;29;20033;-77
2023/01/30 15:34:17;;;;;;;4.38;3.22;;;11.90;84.20;;;;;;4894843;29;20046;-76
2023/01/30 15:36:42;;;;;;;6.75;3.05;;;11.90;84.10;;;;;;4883570;29;20073;-77
2023/01/30 15:39:23;;;;;;;4.38;2.47;;;12.00;84.00;;;;;;4883159;29;20065;-77
2023/01/30 15:41:55;;;;;;;5.38;2.53;;;12.00;84.00;;;;;;4890839;29;20127;-77
2023/01/30 15:44:42;;;;;;;4.35;2.90;;;12.10;84.00;;;;;;4900894;29;20033;-77
2023/01/30 15:47:35;;;;;;;6.10;3.10;;;12.10;84.00;;;;;;4902251;29;20112;-76
2023/01/30 15:50:07;;;;;;;4.15;3.00;;;12.10;83.90;;;;;;4900491;29;20523;-77
2023/01/30 15:52:45;;;;;;;4.43;2.83;;;12.10;83.90;;;;;;4899495;29;20084;-77
2023/01/30 15:55:32;;;;;;;4.80;3.20;;;12.00;83.90;;;;;;4883618;29;20029;-77
2023/01/30 15:58:03;;;;;;;6.25;3.33;;;12.00;84.00;;;;;;4900595;29;20029;-77
2023/01/30 16:00:32;;;;;;;5.32;3.65;;;12.00;84.00;;;;;;4900207;29;20021;-76
2023/01/30 16:03:00;;;;;;;6.30;3.77;;;12.00;84.10;;;;;;4900118;29;20063;-77
2023/01/30 16:05:27;;;;;;;7.15;4.70;;;11.90;84.00;;;;;;4883319;29;20295;-77
2023/01/30 16:07:55;;;;;;;12.88;4.90;;;12.00;84.10;;;;;;4900628;29;20112;-77
2023/01/30 16:10:29;;;;;;;5.20;3.85;;;11.90;84.20;;;;;;4898297;29;20600;-76
2023/01/30 16:12:56;;;;;;;4.70;2.88;;;11.90;84.10;;;;;;4881524;29;20093;-77
2023/01/30 16:15:28;;;;;;;5.57;2.42;;;11.80;84.10;;;;;;4881519;29;20085;-76
2023/01/30 16:18:01;;;;;;;6.90;3.10;;;11.80;84.30;;;;;;4881566;29;20055;-76
2023/01/30 16:20:27;;;;;;;9.07;5.97;;;11.80;84.30;;;;;;4864753;29;20054;-76
2023/01/30 16:22:52;;;;;;;11.45;3.10;;;11.80;84.60;;;;;;4881445;29;20029;-76
2023/01/30 16:25:23;;;;;;;4.75;2.58;;;11.70;84.10;;;;;;4881485;29;20036;-76
2023/01/30 16:27:50;;;;;;;6.95;2.50;;;11.70;84.00;;;;;;4881630;29;20098;-76
2023/01/30 16:30:24;;;;;;;12.98;4.10;;;11.60;83.90;;;;;;4881334;29;20496;-77
2023/01/30 16:32:53;;;;;;;15.05;4.00;;;11.40;82.70;;;;;;4893744;29;20021;-76
2023/01/30 16:35:27;;;;;;;18.65;5.35;;;11.30;82.80;;;;;;4899945;29;20029;-76
2023/01/30 16:37:54;;;;;;;11.75;4.55;;;11.20;82.30;;;;;;4881806;29;20052;-76
2023/01/30 16:40:26;;;;;;;12.82;3.60;;;11.20;82.30;;;;;;4882978;29;20029;-77
2023/01/30 16:42:57;;;;;;;12.98;3.15;;;11.10;82.10;;;;;;4881071;29;20040;-78
2023/01/30 16:45:37;;;;;;;12.13;2.95;;;11.00;82.50;;;;;;4883029;29;20024;-81
2023/01/30 16:48:22;;;;;;;15.55;4.03;;;10.90;82.50;;;;;;4889765;29;20044;-79
2023/01/30 16:51:09;;;;;;;14.77;4.28;;;10.80;82.20;;;;;;4890620;29;20037;-79
2023/01/30 16:53:35;;;;;;;10.32;4.03;;;10.80;82.50;;;;;;4890529;29;20052;-79
2023/01/30 16:56:08;;;;;;;12.30;3.75;;;10.80;81.90;;;;;;4899452;29;20043;-79
2023/01/30 16:58:35;;;;;;;14.90;3.58;;;10.70;82.10;;;;;;4879453;29;20096;-79
2023/01/30 17:01:07;;;;;;;15.10;6.53;;;10.70;82.40;;;;;;4896371;29;20028;-79
2023/01/30 17:03:37;;;;;;;13.32;4.38;;;10.60;82.00;;;;;;4877991;29;20033;-79
2023/01/30 17:06:13;;;;;;;18.67;5.57;;;10.60;81.70;;;;;;4878518;29;20084;-79
2023/01/30 17:08:52;;;;;;;13.07;5.55;;;10.50;82.10;;;;;;4899571;29;20575;-79
2023/01/30 17:11:27;;;;;;;12.55;3.65;;;10.50;81.80;;;;;;4880050;29;20775;-78
2023/01/30 17:14:13;;;;;;;17.70;4.45;;;10.50;81.90;;;;;;4880796;29;20025;-78
2023/01/30 17:16:39;;;;;;;11.38;3.53;;;10.40;81.60;;;;;;4879592;29;20029;-79
2023/01/30 17:19:05;;;;;;;14.68;3.90;;;10.40;81.60;;;;;;4872260;29;20098;-79
2023/01/30 17:21:42;;;;;;;8.50;2.92;;;10.30;81.50;;;;;;4879952;29;20024;-78
2023/01/30 17:24:13;;;;;;;13.48;4.53;;;10.30;81.80;;;;;;4884328;29;20399;-80
2023/01/30 17:26:38;;;;;;;21.65;6.32;;;10.20;81.50;;;;;;4884809;29;20064;-76
2023/01/30 17:29:04;;;;;;;21.27;4.35;;;10.10;81.60;;;;;;4885905;29;20035;-78
2023/01/30 17:31:30;;;;;;;11.52;3.65;;;10.20;81.80;;;;;;4881739;29;20037;-78
2023/01/30 17:33:55;;;;;;;17.85;5.38;;;10.20;82.10;;;;;;4879029;29;20043;-88
2023/01/30 17:36:45;;;;;;;13.65;4.78;;;10.30;81.70;;;;;;4881252;29;20036;-80
2023/01/30 17:39:16;;;;;;;19.90;5.50;;;10.20;81.90;;;;;;4885891;29;20135;-79
2023/01/30 17:41:43;;;;;;;13.18;4.35;;;10.30;81.90;;;;;;4881808;29;20068;-79
2023/01/30 17:44:10;;;;;;;9.90;2.70;;;10.30;81.70;;;;;;4882701;29;20123;-77
2023/01/30 17:46:41;;;;;;;11.23;3.40;;;10.30;81.60;;;;;;4893576;29;20036;-76
2023/01/30 17:49:13;;;;;;;13.48;3.38;;;10.30;81.50;;;;;;4882574;29;20447;-76
2023/01/30 17:51:39;;;;;;;14.63;5.00;;;10.20;81.50;;;;;;4882635;29;20119;-80
2023/01/30 17:54:04;;;;;;;12.93;4.60;;;10.20;81.50;;;;;;4903989;29;20127;-76
2023/01/30 17:56:36;;;;;;;15.18;4.70;;;10.10;81.50;;;;;;4893382;29;20043;-77
2023/01/30 17:59:09;;;;;;;17.65;5.22;;;10.10;81.60;;;;;;4900759;29;20032;-77
2023/01/30 18:01:35;;;;;;;14.30;4.97;;;10.10;81.50;;;;;;4897824;29;20024;-77
2023/01/30 18:04:01;;;;;;;10.77;3.65;;;10.00;81.50;;;;;;4901290;29;20021;-77
2023/01/30 18:06:28;;;;;;;17.27;3.88;;;10.00;81.40;;;;;;4901191;29;20463;-77
2023/01/30 18:08:54;;;;;;;10.98;3.47;;;9.90;81.40;;;;;;4874379;29;20427;-78
2023/01/30 18:11:20;;;;;;;16.98;4.13;;;9.80;81.50;;;;;;4881141;29;20051;-76
2023/01/30 18:13:46;;;;;;;10.32;4.03;;;9.80;81.60;;;;;;4883240;29;20041;-78
2023/01/30 18:16:32;;;;;;;16.52;5.15;;;9.80;81.60;;;;;;4866739;29;20033;-76
2023/01/30 18:19:02;;;;;;;20.27;5.57;;;9.70;81.70;;;;;;4877032;29;20041;-76
2023/01/30 18:21:28;;;;;;;17.25;4.72;;;9.70;81.70;;;;;;4901661;29;20491;-74
2023/01/30 18:23:54;;;;;;;10.82;3.63;;;9.70;81.50;;;;;;4898302;29;20025;-75
2023/01/30 18:26:20;;;;;;;9.95;4.95;;;9.60;81.30;;;;;;4901591;29;20025;-77
2023/01/30 18:28:46;;;;;;;11.63;5.35;;;9.50;81.40;;;;;;4883400;29;20108;-77
2023/01/30 18:31:12;;;;;;;13.63;4.95;;;9.50;81.50;;;;;;4901402;29;20471;-76
2023/01/30 18:33:39;;;;;;;19.23;6.50;;;9.40;81.60;;;;;;4900309;29;20047;-76
2023/01/30 18:36:08;;;;;;;16.00;6.57;;;9.40;81.30;;;;;;4883876;29;20037;-77
2023/01/30 18:38:34;;;;;;;21.30;7.05;;;9.30;81.20;;;;;;4884664;29;20060;-78
2023/01/30 18:41:12;;;;;;;28.25;10.73;;;9.30;81.40;;;;;;4883012;29;20817;-74
2023/01/30 18:43:38;;;;;;;18.95;8.38;;;9.20;81.20;;;;;;4894947;29;20165;-75
2023/01/30 18:46:07;;;;;;;21.23;9.35;;;9.20;81.50;;;;;;4902605;29;20017;-75
2023/01/30 18:48:34;;;;;;;43.25;16.73;;;9.20;81.30;;;;;;4897036;29;20416;-78
2023/01/30 18:51:13;;;;;;;27.75;10.98;;;9.20;81.60;;;;;;4867906;29;20048;-75
2023/01/30 18:53:40;;;;;;;27.27;12.65;;;9.10;81.30;;;;;;4895125;29;20138;-77
2023/01/30 18:56:08;;;;;;;26.45;13.23;;;9.00;81.20;;;;;;4901515;29;20484;-76
2023/01/30 18:58:34;;;;;;;23.58;11.38;;;8.90;80.70;;;;;;4901299;29;20136;-75
2023/01/30 19:01:08;;;;;;;23.35;10.50;;;8.90;80.80;;;;;;4881253;29;20029;-76
2023/01/30 19:03:34;;;;;;;21.60;9.48;;;8.90;81.20;;;;;;4899834;29;20552;-76